createdAt,value
2017-09-25T00:00:17.646Z,53.43
2017-09-25T00:02:45.150Z,66.63
2017-09-25T00:05:12.692Z,77.23
2017-09-25T00:07:40.953Z,68.57
2017-09-25T00:10:09.224Z,48.20
2017-09-25T00:12:36.785Z,50.37
2017-09-25T00:15:04.281Z,45.70
2017-09-25T00:17:31.817Z,49.37
2017-09-25T00:19:59.332Z,47.97
2017-09-25T00:22:26.862Z,47.57
2017-09-25T00:24:54.364Z,43.43
2017-09-25T00:27:21.917Z,50.63
2017-09-25T00:29:49.430Z,60.80
2017-09-25T00:32:17.113Z,75.20
2017-09-25T00:34:45.385Z,87.70
2017-09-25T00:37:12.882Z,58.60
2017-09-25T00:39:40.415Z,84.20
2017-09-25T00:42:07.922Z,118.20
2017-09-25T00:44:35.468Z,126.20
2017-09-25T00:47:02.967Z,94.00
2017-09-25T00:49:30.514Z,72.70
2017-09-25T00:51:58.089Z,58.13
2017-09-25T00:54:25.651Z,49.90
2017-09-25T00:56:53.159Z,48.93
2017-09-25T00:59:28.221Z,53.33
2017-09-25T01:02:07.684Z,41.63
2017-09-25T01:04:47.040Z,41.97
2017-09-25T01:07:14.542Z,44.37
2017-09-25T01:09:42.069Z,53.07
2017-09-25T01:12:09.569Z,41.20
2017-09-25T01:14:37.105Z,39.53
2017-09-25T01:17:04.655Z,43.87
2017-09-25T01:19:33.065Z,42.83
2017-09-25T01:22:00.570Z,44.40
2017-09-25T01:24:28.086Z,37.73
2017-09-25T01:26:55.618Z,35.80
2017-09-25T01:29:25.809Z,41.77
2017-09-25T01:31:53.349Z,41.00
2017-09-25T01:34:20.856Z,50.03
2017-09-25T01:36:48.403Z,49.07
2017-09-25T01:39:15.905Z,51.20
2017-09-25T01:41:43.433Z,47.50
2017-09-25T01:44:10.930Z,51.77
2017-09-25T01:46:38.565Z,67.90
2017-09-25T01:49:06.821Z,72.27
2017-09-25T01:51:35.081Z,89.53
2017-09-25T01:54:03.373Z,77.43
2017-09-25T01:56:30.862Z,97.07
2017-09-25T01:58:58.396Z,73.30
2017-09-25T02:01:25.895Z,89.87
2017-09-25T02:03:53.417Z,86.40
2017-09-25T02:06:21.673Z,68.90
2017-09-25T02:08:49.970Z,65.70
2017-09-25T02:11:17.465Z,81.00
2017-09-25T02:13:45.094Z,87.53
2017-09-25T02:16:12.590Z,73.47
2017-09-25T02:18:40.115Z,82.13
2017-09-25T02:21:08.405Z,76.57
2017-09-25T02:23:35.905Z,77.23
2017-09-25T02:26:03.428Z,89.47
2017-09-25T02:28:30.919Z,88.27
2017-09-25T02:30:58.448Z,74.63
2017-09-25T02:33:26.710Z,97.60
2017-09-25T02:35:55.124Z,76.53
2017-09-25T02:38:22.641Z,85.07
2017-09-25T02:40:50.160Z,100.53
2017-09-25T02:43:17.680Z,102.50
2017-09-25T02:45:45.172Z,87.27
2017-09-25T02:48:12.712Z,82.33
2017-09-25T02:50:40.230Z,95.47
2017-09-25T02:53:07.762Z,90.57
2017-09-25T02:55:35.257Z,72.00
2017-09-25T02:58:02.781Z,61.37
2017-09-25T03:00:31.037Z,53.50
2017-09-25T03:02:59.530Z,55.83
2017-09-25T03:05:27.037Z,78.17
2017-09-25T03:07:55.317Z,60.43
2017-09-25T03:10:22.842Z,82.20
2017-09-25T03:12:51.097Z,71.60
2017-09-25T03:15:19.396Z,70.60
2017-09-25T03:17:46.885Z,93.57
2017-09-25T03:20:14.418Z,80.80
2017-09-25T03:22:41.921Z,89.57
2017-09-25T03:25:09.452Z,72.93
2017-09-25T03:27:36.945Z,62.43
2017-09-25T03:30:04.869Z,58.33
2017-09-25T03:32:32.361Z,59.63
2017-09-25T03:34:59.849Z,46.30
2017-09-25T03:37:27.375Z,46.67
2017-09-25T03:39:55.626Z,47.40
2017-09-25T03:42:23.926Z,39.50
2017-09-25T03:44:51.414Z,45.27
2017-09-25T03:47:18.936Z,41.87
2017-09-25T03:49:46.713Z,46.63
2017-09-25T03:52:14.262Z,41.20
2017-09-25T03:54:41.785Z,45.73
2017-09-25T03:57:09.276Z,46.07
2017-09-25T03:59:36.833Z,64.00
2017-09-25T04:02:04.325Z,77.23
2017-09-25T04:04:31.825Z,110.20
2017-09-25T04:06:59.353Z,110.33
2017-09-25T04:09:26.851Z,124.13
2017-09-25T04:11:54.373Z,126.00
2017-09-25T04:14:21.861Z,137.60
2017-09-25T04:16:50.157Z,131.17
2017-09-25T04:19:17.652Z,116.80
2017-09-25T04:21:45.176Z,69.17
2017-09-25T04:24:12.663Z,55.00
2017-09-25T04:26:40.955Z,57.73
2017-09-25T04:29:08.481Z,51.47
2017-09-25T04:31:35.973Z,52.33
2017-09-25T04:34:03.501Z,72.77
2017-09-25T04:36:30.996Z,96.83
2017-09-25T04:38:59.292Z,162.20
2017-09-25T04:41:26.784Z,215.07
2017-09-25T04:43:54.316Z,259.77
2017-09-25T04:46:21.809Z,194.50
2017-09-25T04:48:49.342Z,146.30
2017-09-25T04:51:16.848Z,175.43
2017-09-25T04:53:44.530Z,135.73
2017-09-25T04:56:12.787Z,252.50
2017-09-25T04:58:41.055Z,167.43
2017-09-25T05:01:08.606Z,101.47
2017-09-25T05:03:36.121Z,132.27
2017-09-25T05:06:03.642Z,95.17
2017-09-25T05:08:31.139Z,93.67
2017-09-25T05:10:58.661Z,85.07
2017-09-25T05:13:26.917Z,110.77
2017-09-25T05:15:54.465Z,71.20
2017-09-25T05:18:22.012Z,54.17
2017-09-25T05:20:49.692Z,58.70
2017-09-25T05:23:17.187Z,49.47
2017-09-25T05:25:44.678Z,40.13
2017-09-25T05:28:12.209Z,34.87
2017-09-25T05:30:39.729Z,38.13
2017-09-25T05:33:07.293Z,34.60
2017-09-25T05:35:34.785Z,35.23
2017-09-25T05:38:02.337Z,40.23
2017-09-25T05:40:29.837Z,43.73
2017-09-25T05:42:57.387Z,32.97
2017-09-25T05:45:24.913Z,31.13
2017-09-25T05:47:53.351Z,31.83
2017-09-25T05:50:20.837Z,31.40
2017-09-25T05:52:48.325Z,34.10
2017-09-25T05:55:15.855Z,36.80
2017-09-25T05:57:43.353Z,29.60
2017-09-25T06:00:10.881Z,33.63
2017-09-25T06:02:39.134Z,32.93
2017-09-25T06:05:06.665Z,35.27
2017-09-25T06:07:34.161Z,36.57
2017-09-25T06:10:01.697Z,36.07
2017-09-25T06:12:29.193Z,34.40
2017-09-25T06:14:56.685Z,36.97
2017-09-25T06:17:24.211Z,43.47
2017-09-25T06:19:52.464Z,46.10
2017-09-25T06:22:20.762Z,44.13
2017-09-25T06:24:49.030Z,52.93
2017-09-25T06:27:16.548Z,51.90
2017-09-25T06:29:44.057Z,54.70
2017-09-25T06:32:11.588Z,114.17
2017-09-25T06:34:39.077Z,75.37
2017-09-25T06:37:06.603Z,51.50
2017-09-25T06:39:34.865Z,44.93
2017-09-25T06:42:02.545Z,51.67
2017-09-25T06:44:30.060Z,102.47
2017-09-25T06:46:58.316Z,71.93
2017-09-25T06:49:26.614Z,52.23
2017-09-25T06:51:54.114Z,55.30
2017-09-25T06:54:21.642Z,49.03
2017-09-25T06:56:49.149Z,31.90
2017-09-25T06:59:16.676Z,28.83
2017-09-25T07:01:44.175Z,33.27
2017-09-25T07:04:12.082Z,24.60
2017-09-25T07:06:39.620Z,23.03
2017-09-25T07:09:07.120Z,20.70
2017-09-25T07:11:34.653Z,24.00
2017-09-25T07:14:02.146Z,21.77
2017-09-25T07:16:29.681Z,21.00
2017-09-25T07:18:57.967Z,20.20
2017-09-25T07:21:25.511Z,19.87
2017-09-25T07:23:53.005Z,24.00
2017-09-25T07:26:20.529Z,26.43
2017-09-25T07:28:48.021Z,26.27
2017-09-25T07:31:15.933Z,23.53
2017-09-25T07:33:43.447Z,28.67
2017-09-25T07:36:10.949Z,28.57
2017-09-25T07:38:39.243Z,32.53
2017-09-25T07:41:06.747Z,25.97
2017-09-25T07:43:34.293Z,24.63
2017-09-25T07:46:01.786Z,23.97
2017-09-25T07:48:29.308Z,24.00
2017-09-25T07:50:56.801Z,24.03
2017-09-25T07:53:24.332Z,19.30
2017-09-25T07:55:51.862Z,21.57
2017-09-25T07:58:19.542Z,22.07
2017-09-25T08:00:47.032Z,22.33
2017-09-25T08:03:25.638Z,19.73
2017-09-25T08:05:53.129Z,18.80
2017-09-25T08:08:20.632Z,22.53
2017-09-25T08:10:48.177Z,24.87
2017-09-25T08:13:15.676Z,20.87
2017-09-25T08:15:43.973Z,22.20
2017-09-25T08:18:11.465Z,21.60
2017-09-25T08:20:39.145Z,19.50
2017-09-25T08:23:07.417Z,22.15
2017-09-25T08:25:34.908Z,20.40
2017-09-25T08:28:02.437Z,21.93
2017-09-25T08:30:29.937Z,19.17
2017-09-25T08:32:58.249Z,20.10
2017-09-25T08:35:25.745Z,19.77
2017-09-25T08:37:54.045Z,18.70
2017-09-25T08:40:22.308Z,19.30
2017-09-25T08:42:49.837Z,17.17
2017-09-25T08:45:17.334Z,17.30
2017-09-25T08:47:44.856Z,17.93
2017-09-25T08:50:12.345Z,17.57
2017-09-25T08:52:40.276Z,18.43
2017-09-25T08:55:08.561Z,21.73
2017-09-25T08:57:36.071Z,19.13
2017-09-25T09:00:03.593Z,19.03
2017-09-25T09:02:31.093Z,17.57
2017-09-25T09:04:58.625Z,15.27
2017-09-25T09:07:26.881Z,15.80
2017-09-25T09:09:55.170Z,15.53
2017-09-25T09:12:22.669Z,14.77
2017-09-25T09:14:50.202Z,14.10
2017-09-25T09:17:17.697Z,16.13
2017-09-25T09:19:45.193Z,15.52
2017-09-25T09:22:12.719Z,12.20
2017-09-25T09:24:40.241Z,11.70
2017-09-25T09:27:07.774Z,19.63
2017-09-25T09:29:35.261Z,9.70
2017-09-25T09:32:02.793Z,10.33
2017-09-25T09:34:30.294Z,10.40
2017-09-25T09:36:58.586Z,11.90
2017-09-25T09:39:26.092Z,10.47
2017-09-25T09:41:54.383Z,8.53
2017-09-25T09:44:21.940Z,10.40
2017-09-25T09:46:49.785Z,11.20
2017-09-25T09:49:17.285Z,11.40
2017-09-25T09:51:45.541Z,13.30
2017-09-25T09:54:13.838Z,9.60
2017-09-25T09:56:41.329Z,9.93
2017-09-25T09:59:08.867Z,9.83
2017-09-25T10:01:36.362Z,9.00
2017-09-25T10:04:03.917Z,12.83
2017-09-25T10:06:31.420Z,11.93
2017-09-25T10:08:58.953Z,11.80
2017-09-25T10:11:26.453Z,12.80
2017-09-25T10:13:54.199Z,9.13
2017-09-25T10:16:21.692Z,8.83
2017-09-25T10:18:49.179Z,9.37
2017-09-25T10:21:16.707Z,8.83
2017-09-25T10:23:44.216Z,10.40
2017-09-25T10:26:11.737Z,7.53
2017-09-25T10:28:39.233Z,8.30
2017-09-25T10:31:07.541Z,6.77
2017-09-25T10:33:35.037Z,7.50
2017-09-25T10:36:03.323Z,8.00
2017-09-25T10:38:30.822Z,6.77
2017-09-25T10:40:58.728Z,7.77
2017-09-25T10:43:26.213Z,6.27
2017-09-25T10:45:53.696Z,5.93
2017-09-25T10:48:21.217Z,6.40
2017-09-25T10:50:49.489Z,8.33
2017-09-25T10:53:17.792Z,6.50
2017-09-25T10:55:45.281Z,6.20
2017-09-25T10:58:13.849Z,8.27
2017-09-25T11:00:41.377Z,6.73
2017-09-25T11:03:08.869Z,9.50
2017-09-25T11:05:36.406Z,10.83
2017-09-25T11:08:03.912Z,7.23
2017-09-25T11:10:31.437Z,5.80
2017-09-25T11:12:58.925Z,7.40
2017-09-25T11:15:27.210Z,7.77
2017-09-25T11:17:54.723Z,7.82
2017-09-25T11:20:23.161Z,5.60
2017-09-25T11:22:50.665Z,5.87
2017-09-25T11:25:18.149Z,10.17
2017-09-25T11:27:45.674Z,6.63
2017-09-25T11:30:13.167Z,9.70
2017-09-25T11:32:41.557Z,6.47
2017-09-25T11:35:09.044Z,5.40
2017-09-25T11:37:36.537Z,7.40
2017-09-25T11:40:04.069Z,5.60
2017-09-25T11:42:31.565Z,4.97
2017-09-25T11:44:59.087Z,8.83
2017-09-25T11:47:26.577Z,3.80
2017-09-25T11:49:54.109Z,11.70
2017-09-25T11:52:21.626Z,6.90
2017-09-25T11:54:49.144Z,8.73
2017-09-25T11:57:16.635Z,5.50
2017-09-25T11:59:44.462Z,4.83
2017-09-25T12:02:12.753Z,4.47
2017-09-25T12:04:40.228Z,4.90
2017-09-25T12:07:08.513Z,3.60
2017-09-25T12:09:36.005Z,4.57
2017-09-25T12:12:03.533Z,3.90
2017-09-25T12:14:31.017Z,3.93
2017-09-25T12:16:58.536Z,3.53
2017-09-25T12:19:26.025Z,4.77
2017-09-25T12:21:53.597Z,3.10
2017-09-25T12:24:21.093Z,4.03
2017-09-25T12:26:48.738Z,8.80
2017-09-25T12:31:50.301Z,3.23
2017-09-25T12:34:17.793Z,3.53
2017-09-25T12:36:45.294Z,6.30
2017-09-25T12:39:12.825Z,3.27
2017-09-25T12:41:40.313Z,3.60
2017-09-25T12:44:09.201Z,2.83
2017-09-25T12:46:38.915Z,2.10
2017-09-25T12:49:09.609Z,3.73
2017-09-25T12:51:37.100Z,3.50
2017-09-25T12:54:04.598Z,3.43
2017-09-25T12:56:33.089Z,6.10
2017-09-25T12:59:00.577Z,2.10
2017-09-25T13:01:28.106Z,2.30
2017-09-25T13:03:55.601Z,2.37
2017-09-25T13:06:23.239Z,2.20
2017-09-25T13:08:50.729Z,2.57
2017-09-25T13:11:18.229Z,4.93
2017-09-25T13:13:45.761Z,2.70
2017-09-25T13:16:13.275Z,4.93
2017-09-25T13:18:40.826Z,2.33
2017-09-25T13:21:08.353Z,2.00
2017-09-25T13:23:35.873Z,2.70
2017-09-25T13:26:04.134Z,4.10
2017-09-25T13:28:32.526Z,5.80
2017-09-25T13:31:00.786Z,4.43
2017-09-25T13:33:28.282Z,4.60
2017-09-25T13:35:55.804Z,2.80
2017-09-25T13:38:23.289Z,2.50
2017-09-25T13:40:51.581Z,3.07
2017-09-25T13:43:19.069Z,3.17
2017-09-25T13:45:46.973Z,3.77
2017-09-25T13:48:14.457Z,3.47
2017-09-25T13:50:41.949Z,3.20
2017-09-25T13:53:09.469Z,3.17
2017-09-25T13:55:37.733Z,2.57
2017-09-25T13:58:06.020Z,3.73
2017-09-25T14:03:07.157Z,2.73
2017-09-25T14:05:34.652Z,3.03
2017-09-25T14:08:02.184Z,2.50
2017-09-25T14:10:29.672Z,4.40
2017-09-25T14:12:57.263Z,3.87
2017-09-25T14:15:24.753Z,3.17
2017-09-25T14:17:53.049Z,3.13
2017-09-25T14:20:20.550Z,5.03
2017-09-25T14:22:48.944Z,2.70
2017-09-25T14:25:17.382Z,5.60
2017-09-25T14:27:44.876Z,3.93
2017-09-25T14:30:12.405Z,4.43
2017-09-25T14:32:39.892Z,3.50
2017-09-25T14:35:07.410Z,3.60
2017-09-25T14:37:34.898Z,4.00
2017-09-25T14:40:02.529Z,2.80
2017-09-25T14:42:30.021Z,3.33
2017-09-25T14:44:57.519Z,6.57
2017-09-25T14:47:25.044Z,3.67
2017-09-25T14:49:52.534Z,2.80
2017-09-25T14:52:20.065Z,3.00
2017-09-25T14:54:48.321Z,3.53
2017-09-25T14:57:16.613Z,3.93
2017-09-25T14:59:44.105Z,3.37
2017-09-25T15:02:12.831Z,6.57
2017-09-25T15:04:40.334Z,3.10
2017-09-25T15:07:07.829Z,3.50
2017-09-25T15:09:35.361Z,5.50
2017-09-25T15:12:02.852Z,4.17
2017-09-25T15:14:30.513Z,3.57
2017-09-25T15:16:58.782Z,4.73
2017-09-25T15:19:27.378Z,9.27
2017-09-25T15:21:54.877Z,6.03
2017-09-25T15:24:22.376Z,4.40
2017-09-25T15:26:49.915Z,3.23
2017-09-25T15:29:17.402Z,4.53
2017-09-25T15:31:44.921Z,4.30
2017-09-25T15:34:12.410Z,3.80
2017-09-25T15:36:40.717Z,5.83
2017-09-25T15:39:08.225Z,4.27
2017-09-25T15:41:36.510Z,3.50
2017-09-25T15:44:03.993Z,3.17
2017-09-25T15:46:31.621Z,3.70
2017-09-25T15:48:59.109Z,4.30
2017-09-25T15:51:27.361Z,4.00
2017-09-25T15:53:54.932Z,3.70
2017-09-25T15:56:22.439Z,4.63
2017-09-25T15:58:49.998Z,3.40
2017-09-25T16:01:18.265Z,3.97
2017-09-25T16:03:46.558Z,7.40
2017-09-25T16:06:14.062Z,3.50
2017-09-25T16:08:41.585Z,5.27
2017-09-25T16:11:09.074Z,3.50
2017-09-25T16:13:36.717Z,4.67
2017-09-25T16:16:04.210Z,3.30
2017-09-25T16:18:31.704Z,4.77
2017-09-25T16:20:59.224Z,3.73
2017-09-25T16:23:26.735Z,4.40
2017-09-25T16:25:54.261Z,5.27
2017-09-25T16:28:21.758Z,4.93
2017-09-25T16:30:49.277Z,4.53
2017-09-25T16:33:16.829Z,4.77
2017-09-25T16:35:44.359Z,11.40
2017-09-25T16:38:11.862Z,3.60
2017-09-25T16:40:39.509Z,4.00
2017-09-25T16:43:07.004Z,3.83
2017-09-25T16:45:34.492Z,3.07
2017-09-25T16:48:02.025Z,5.40
2017-09-25T16:50:30.538Z,6.60
2017-09-25T16:52:58.057Z,5.30
2017-09-25T16:55:25.546Z,4.43
2017-09-25T16:57:53.082Z,4.40
2017-09-25T17:00:20.573Z,5.00
2017-09-25T17:02:48.193Z,3.97
2017-09-25T17:05:15.707Z,4.77
2017-09-25T17:07:43.237Z,3.93
2017-09-25T17:10:10.778Z,5.47
2017-09-25T17:12:38.292Z,5.20
2017-09-25T17:15:05.869Z,5.50
2017-09-25T17:17:33.364Z,4.67
2017-09-25T17:20:01.677Z,4.10
2017-09-25T17:22:29.205Z,5.83
2017-09-25T17:24:56.775Z,5.23
2017-09-25T17:27:24.281Z,4.80
2017-09-25T17:29:52.120Z,4.60
2017-09-25T17:32:19.618Z,8.13
2017-09-25T17:34:47.791Z,8.13
2017-09-25T17:37:15.331Z,5.47
2017-09-25T17:39:42.911Z,5.00
2017-09-25T17:42:11.206Z,4.83
2017-09-25T17:44:38.717Z,4.67
2017-09-25T17:47:07.197Z,8.03
2017-09-25T17:49:34.696Z,4.10
2017-09-25T17:52:02.190Z,6.47
2017-09-25T17:54:29.713Z,6.33
2017-09-25T17:56:57.975Z,11.37
2017-09-25T17:59:26.269Z,6.63
2017-09-25T18:01:53.764Z,7.70
2017-09-25T18:04:21.305Z,7.77
2017-09-25T18:06:48.828Z,10.37
2017-09-25T18:09:16.633Z,10.53
2017-09-25T18:11:44.145Z,11.33
2017-09-25T18:14:11.642Z,15.27
2017-09-25T18:16:39.177Z,17.10
2017-09-25T18:19:06.673Z,14.23
2017-09-25T18:21:34.235Z,16.77
2017-09-25T18:24:02.505Z,13.77
2017-09-25T18:26:30.035Z,11.60
2017-09-25T18:28:57.557Z,7.90
2017-09-25T18:31:25.261Z,9.97
2017-09-25T18:33:52.752Z,13.57
2017-09-25T18:36:20.249Z,13.00
2017-09-25T18:38:47.782Z,11.53
2017-09-25T18:41:15.297Z,11.00
2017-09-25T18:43:43.587Z,6.03
2017-09-25T18:46:11.081Z,9.27
2017-09-25T18:48:38.785Z,7.33
2017-09-25T18:51:06.274Z,7.53
2017-09-25T18:53:38.493Z,11.90
2017-09-25T18:56:06.021Z,9.63
2017-09-25T18:58:33.519Z,11.03
2017-09-25T19:01:01.085Z,8.70
2017-09-25T19:03:29.350Z,8.43
2017-09-25T19:05:57.653Z,11.63
2017-09-25T19:08:25.156Z,13.27
2017-09-25T19:10:53.453Z,11.30
2017-09-25T19:13:20.981Z,12.00
2017-09-25T19:15:48.624Z,13.80
2017-09-25T19:18:16.117Z,10.57
2017-09-25T19:20:43.618Z,10.53
2017-09-25T19:23:11.145Z,13.33
2017-09-25T19:25:38.654Z,10.20
2017-09-25T19:28:06.233Z,13.40
2017-09-25T19:30:34.522Z,10.93
2017-09-25T19:33:02.061Z,9.57
2017-09-25T19:35:29.553Z,9.40
2017-09-25T19:37:57.085Z,11.80
2017-09-25T19:40:24.698Z,18.23
2017-09-25T19:42:53.451Z,13.07
2017-09-25T19:45:20.975Z,9.77
2017-09-25T19:47:59.921Z,15.00
2017-09-25T19:50:39.112Z,11.13
2017-09-25T19:53:07.465Z,12.00
2017-09-25T19:55:35.741Z,14.40
2017-09-25T19:58:08.717Z,13.80
2017-09-25T20:00:37.136Z,13.80
2017-09-25T20:03:05.318Z,15.20
2017-09-25T20:05:33.587Z,14.30
2017-09-25T20:08:01.846Z,16.83
2017-09-25T20:10:32.661Z,15.40
2017-09-25T20:13:00.929Z,15.60
2017-09-25T20:15:48.145Z,15.47
2017-09-25T20:18:15.677Z,19.40
2017-09-25T20:20:44.029Z,14.53
2017-09-25T20:23:11.549Z,16.87
2017-09-25T20:25:39.114Z,17.77
2017-09-25T20:28:06.643Z,18.17
2017-09-25T20:30:34.173Z,16.07
2017-09-25T20:33:01.693Z,19.57
2017-09-25T20:35:29.342Z,16.03
2017-09-25T20:37:56.848Z,14.87
2017-09-25T20:40:25.723Z,15.73
2017-09-25T20:43:00.017Z,14.70
2017-09-25T20:45:27.519Z,18.20
2017-09-25T20:47:55.108Z,12.53
2017-09-25T20:50:22.597Z,19.70
2017-09-25T20:52:50.181Z,13.37
2017-09-25T20:55:17.677Z,17.10
2017-09-25T20:57:45.238Z,17.37
2017-09-25T21:00:12.740Z,14.67
2017-09-25T21:02:40.285Z,16.20
2017-09-25T21:05:08.578Z,15.53
2017-09-25T21:07:36.101Z,19.00
2017-09-25T21:10:04.374Z,17.27
2017-09-25T21:12:32.013Z,18.20
2017-09-25T21:14:59.519Z,16.50
2017-09-25T21:17:27.014Z,12.57
2017-09-25T21:19:54.554Z,16.97
2017-09-25T21:22:22.053Z,10.90
2017-09-25T21:24:49.597Z,18.40
2017-09-25T21:27:19.768Z,14.37
2017-09-25T21:29:47.297Z,16.60
2017-09-25T21:32:14.805Z,15.13
2017-09-25T21:34:43.106Z,15.03
2017-09-25T21:37:10.604Z,16.27
2017-09-25T21:39:38.254Z,17.20
2017-09-25T21:42:06.520Z,20.57
2017-09-25T21:44:34.957Z,19.20
2017-09-25T21:47:02.488Z,18.77
2017-09-25T21:49:29.989Z,16.93
2017-09-25T21:51:57.629Z,18.10
2017-09-25T21:54:25.893Z,17.03
2017-09-25T21:56:54.294Z,17.50
2017-09-25T21:59:21.791Z,15.90
2017-09-25T22:01:50.089Z,15.50
2017-09-25T22:04:17.632Z,16.47
2017-09-25T22:06:46.103Z,16.03
2017-09-25T22:09:13.600Z,17.30
2017-09-25T22:11:41.876Z,16.30
2017-09-25T22:14:09.422Z,17.50
2017-09-25T22:16:37.712Z,15.37
2017-09-25T22:19:05.242Z,19.63
2017-09-25T22:21:32.752Z,14.63
2017-09-25T22:24:01.057Z,16.50
2017-09-25T22:26:28.557Z,16.77
2017-09-25T22:28:56.108Z,13.83
2017-09-25T22:31:23.611Z,15.20
2017-09-25T22:33:51.545Z,16.93
2017-09-25T22:36:19.037Z,15.03
2017-09-25T22:38:46.546Z,11.97
2017-09-25T22:41:14.157Z,12.80
2017-09-25T22:43:56.551Z,13.60
2017-09-25T22:46:24.096Z,10.50
2017-09-25T22:48:51.598Z,14.03
2017-09-25T22:51:19.132Z,14.00
2017-09-25T22:53:46.622Z,13.43
2017-09-25T22:56:14.145Z,10.67
2017-09-25T22:58:42.405Z,13.70
2017-09-25T23:01:09.957Z,13.20
2017-09-25T23:03:38.249Z,11.07
2017-09-25T23:06:05.781Z,19.87
2017-09-25T23:08:33.274Z,12.90
2017-09-25T23:11:04.543Z,11.93
2017-09-25T23:13:32.805Z,12.03
2017-09-25T23:16:01.065Z,14.60
2017-09-25T23:18:29.406Z,14.47
2017-09-25T23:20:56.896Z,11.73
2017-09-25T23:23:24.434Z,14.90
2017-09-25T23:25:51.932Z,13.57
2017-09-25T23:28:19.461Z,12.57
2017-09-25T23:30:53.561Z,14.17
2017-09-25T23:33:21.099Z,13.23
2017-09-25T23:35:48.588Z,12.43
2017-09-25T23:38:17.161Z,13.53
2017-09-25T23:40:45.475Z,13.67
2017-09-25T23:43:12.966Z,11.43
2017-09-25T23:45:41.256Z,15.10
2017-09-25T23:48:08.744Z,14.03
2017-09-25T23:50:36.277Z,12.83
2017-09-25T23:53:04.102Z,16.77
2017-09-25T23:55:31.644Z,15.23
2017-09-25T23:57:59.137Z,14.57
